Time;durP1;ratioP1;P1;durP2;ratioP2;P2;SDS_P1;SDS_P2;PMS_P1;PMS_P2;Temp;Humidity;BMP_temperature;BMP_pressure;BME280_temperature;BME280_humidity;BME280_pressure;Samples;Min_cycle;Max_cycle;Signal;HPM_P1;HPM_P2
2020/12/07 00:00:15;;;;;;;117.18;54.03;;;;;;;0.51;100.00;99916.59;4973185;28;20042;-69
2020/12/07 00:02:41;;;;;;;117.82;55.35;;;;;;;0.54;100.00;99914.66;4972728;28;20511;-69
2020/12/07 00:05:07;;;;;;;120.43;54.72;;;;;;;0.51;100.00;99913.97;4972862;28;20676;-69
2020/12/07 00:07:33;;;;;;;120.88;56.25;;;;;;;0.50;100.00;99900.88;4972798;28;20050;-68
2020/12/07 00:10:01;;;;;;;125.97;55.78;;;;;;;0.50;100.00;99904.38;4973186;28;20038;-68
2020/12/07 00:12:28;;;;;;;122.95;57.28;;;;;;;0.50;100.00;99898.22;4973547;28;20487;-69
2020/12/07 00:14:54;;;;;;;140.88;61.70;;;;;;;0.48;100.00;99901.00;4972764;28;20073;-69
2020/12/07 00:17:21;;;;;;;133.27;60.05;;;;;;;0.45;100.00;99896.00;4972516;28;20063;-69
2020/12/07 00:19:47;;;;;;;132.77;61.47;;;;;;;0.45;100.00;99905.69;4972498;28;20056;-69
2020/12/07 00:22:12;;;;;;;132.77;59.97;;;;;;;0.44;100.00;99902.22;4972731;28;20684;-68
2020/12/07 00:24:38;;;;;;;133.00;58.80;;;;;;;0.45;100.00;99892.50;4971638;28;20114;-69
2020/12/07 00:27:03;;;;;;;134.40;61.05;;;;;;;0.47;100.00;99901.97;5003106;28;20066;-69
2020/12/07 00:29:29;;;;;;;140.25;60.90;;;;;;;0.51;100.00;99892.84;4971656;28;20033;-69
2020/12/07 00:31:54;;;;;;;137.45;60.35;;;;;;;0.50;100.00;99891.19;4972449;28;20037;-68
2020/12/07 00:34:20;;;;;;;129.05;57.45;;;;;;;0.52;100.00;99891.88;4971323;28;20393;-68
2020/12/07 00:36:47;;;;;;;134.48;62.70;;;;;;;0.49;100.00;99900.03;4971770;28;20031;-69
2020/12/07 00:39:12;;;;;;;146.32;63.38;;;;;;;0.47;100.00;99909.06;4970170;28;20807;-69
2020/12/07 00:41:38;;;;;;;129.70;58.53;;;;;;;0.48;100.00;99902.81;4972137;28;20035;-69
2020/12/07 00:44:03;;;;;;;143.00;63.00;;;;;;;0.50;100.00;99904.38;4971601;28;20082;-69
2020/12/07 00:46:33;;;;;;;138.23;63.00;;;;;;;0.52;100.00;99909.53;4971610;28;20038;-69
2020/12/07 00:48:59;;;;;;;157.00;64.50;;;;;;;0.53;100.00;99911.19;4971090;28;20495;-69
2020/12/07 00:51:24;;;;;;;147.60;62.72;;;;;;;0.59;100.00;99897.50;4971963;28;20035;-69
2020/12/07 00:53:50;;;;;;;150.75;66.20;;;;;;;0.60;100.00;99899.16;4970780;28;20038;-69
2020/12/07 00:56:15;;;;;;;165.15;62.90;;;;;;;0.61;100.00;99905.31;4971726;28;20046;-69
2020/12/07 00:58:41;;;;;;;165.27;68.00;;;;;;;0.60;100.00;99898.31;4971211;28;20086;-68
2020/12/07 01:01:06;;;;;;;162.40;65.78;;;;;;;0.66;100.00;99890.75;4986941;28;20046;-69
2020/12/07 01:03:32;;;;;;;178.32;68.03;;;;;;;0.65;100.00;99888.22;4971439;28;20030;-69
2020/12/07 01:05:58;;;;;;;184.38;68.53;;;;;;;0.68;100.00;99872.97;4972074;28;20027;-69
2020/12/07 01:08:23;;;;;;;192.05;71.07;;;;;;;0.66;100.00;99884.66;4970410;28;20443;-69
2020/12/07 01:10:55;;;;;;;209.05;71.38;;;;;;;0.68;100.00;99875.63;4971603;28;20587;-69
2020/12/07 01:13:21;;;;;;;207.90;71.50;;;;;;;0.70;100.00;99870.19;4971371;28;20483;-68
2020/12/07 01:15:46;;;;;;;206.18;70.57;;;;;;;0.77;100.00;99876.66;4970956;28;20035;-69
2020/12/07 01:18:12;;;;;;;241.18;75.22;;;;;;;0.77;100.00;99869.59;4970912;28;20463;-69
2020/12/07 01:20:37;;;;;;;218.35;70.20;;;;;;;0.82;100.00;99868.38;4970687;28;20033;-69
2020/12/07 01:23:03;;;;;;;226.50;72.05;;;;;;;0.80;100.00;99868.47;4970739;28;20031;-69
2020/12/07 01:25:28;;;;;;;227.38;71.43;;;;;;;0.77;100.00;99861.66;4970893;28;20042;-69
2020/12/07 01:27:54;;;;;;;235.40;76.13;;;;;;;0.75;100.00;99860.09;4970710;28;20499;-69
2020/12/07 01:30:19;;;;;;;211.70;70.28;;;;;;;0.76;100.00;99854.72;4971086;28;20034;-69
2020/12/07 01:32:45;;;;;;;237.48;74.30;;;;;;;0.86;100.00;99849.50;4970843;28;20113;-69
2020/12/07 01:35:10;;;;;;;254.50;71.65;;;;;;;0.85;100.00;99853.09;4970705;28;20465;-69
2020/12/07 01:37:37;;;;;;;257.30;74.95;;;;;;;0.84;100.00;99840.03;4969820;28;20035;-69
2020/12/07 01:40:03;;;;;;;244.85;69.30;;;;;;;0.84;100.00;99832.94;4970684;28;20065;-69
2020/12/07 01:42:28;;;;;;;236.23;73.80;;;;;;;0.80;100.00;99843.88;4969771;28;20054;-69
2020/12/07 01:44:54;;;;;;;253.55;72.20;;;;;;;0.82;100.00;99842.81;4970741;28;20122;-69
2020/12/07 01:47:24;;;;;;;236.73;70.13;;;;;;;0.81;100.00;99845.56;4970068;28;20031;-69
2020/12/07 01:49:50;;;;;;;222.68;70.20;;;;;;;0.82;100.00;99856.00;4970735;28;20559;-69
2020/12/07 01:52:19;;;;;;;237.18;71.00;;;;;;;0.86;100.00;99853.94;4970376;28;20030;-69
2020/12/07 01:54:47;;;;;;;233.57;67.97;;;;;;;0.88;100.00;99841.44;4970900;28;20031;-69
2020/12/07 01:57:13;;;;;;;218.02;67.32;;;;;;;0.87;100.00;99840.63;4970243;28;20411;-69
2020/12/07 01:59:39;;;;;;;211.68;67.22;;;;;;;0.88;100.00;99849.38;4970552;28;20113;-69
2020/12/07 02:02:04;;;;;;;198.00;63.67;;;;;;;0.92;100.00;99848.97;4970616;28;20121;-69
2020/12/07 02:04:30;;;;;;;208.65;63.28;;;;;;;0.96;100.00;99841.66;4971005;28;20099;-69
2020/12/07 02:07:16;;;;;;;184.35;58.25;;;;;;;0.91;100.00;99844.69;4970678;28;20062;-69
2020/12/07 02:09:46;;;;;;;181.05;60.30;;;;;;;0.88;100.00;99854.66;4970839;28;20042;-69
2020/12/07 02:12:13;;;;;;;183.73;58.50;;;;;;;0.96;100.00;99855.69;4985424;28;20043;-69
2020/12/07 02:14:39;;;;;;;173.70;56.92;;;;;;;0.97;100.00;99854.72;4970834;28;20034;-69
2020/12/07 02:17:04;;;;;;;191.90;57.75;;;;;;;0.92;100.00;99848.97;4969046;28;20030;-69
2020/12/07 02:19:30;;;;;;;185.50;59.25;;;;;;;0.93;100.00;99845.38;4970116;28;20027;-69
2020/12/07 02:21:55;;;;;;;173.18;57.17;;;;;;;0.93;100.00;99850.66;4970053;28;20522;-69
2020/12/07 02:24:21;;;;;;;174.32;57.15;;;;;;;0.90;100.00;99842.97;4970219;28;20023;-69
2020/12/07 02:26:47;;;;;;;173.68;56.00;;;;;;;0.95;100.00;99847.88;4969583;28;20093;-69
2020/12/07 02:29:12;;;;;;;201.75;58.42;;;;;;;0.92;100.00;99841.06;4970726;28;20031;-69
2020/12/07 02:31:38;;;;;;;202.23;61.00;;;;;;;0.94;100.00;99830.34;4969810;28;20035;-69
2020/12/07 02:34:04;;;;;;;188.68;58.05;;;;;;;0.91;100.00;99835.91;4970272;28;20562;-69
2020/12/07 02:36:30;;;;;;;206.65;61.13;;;;;;;0.93;100.00;99829.53;4969759;28;20031;-69
2020/12/07 02:38:56;;;;;;;215.23;64.63;;;;;;;0.92;100.00;99832.31;4970209;28;20066;-69
2020/12/07 02:41:22;;;;;;;199.07;59.90;;;;;;;0.97;100.00;99844.16;4970019;28;20089;-69
2020/12/07 02:43:48;;;;;;;220.23;64.75;;;;;;;0.95;100.00;99848.72;4970591;28;20521;-69
2020/12/07 02:46:14;;;;;;;217.70;64.00;;;;;;;0.99;100.00;99831.63;4969446;28;20507;-69
2020/12/07 02:48:41;;;;;;;199.38;60.58;;;;;;;1.01;100.00;99831.53;4970249;28;20558;-69
2020/12/07 02:51:07;;;;;;;212.70;60.90;;;;;;;1.02;100.00;99823.47;4970614;28;20117;-69
2020/12/07 02:53:33;;;;;;;200.13;59.45;;;;;;;1.01;100.00;99823.59;4969817;28;20077;-69
2020/12/07 02:56:05;;;;;;;195.60;58.92;;;;;;;1.04;100.00;99818.03;4970657;28;20066;-69
2020/12/07 02:58:38;;;;;;;171.15;56.17;;;;;;;1.01;100.00;99820.97;4969294;28;20561;-70
2020/12/07 03:01:03;;;;;;;212.20;60.40;;;;;;;1.02;100.00;99812.06;4970064;28;20129;-69
2020/12/07 03:03:29;;;;;;;188.90;59.63;;;;;;;1.03;100.00;99817.22;4969920;28;20042;-69
2020/12/07 03:05:55;;;;;;;193.73;59.08;;;;;;;1.08;100.00;99813.34;4970116;28;20100;-69
2020/12/07 03:08:37;;;;;;;203.30;57.40;;;;;;;1.08;100.00;99806.25;4968841;28;20066;-69
2020/12/07 03:11:07;;;;;;;191.00;57.65;;;;;;;1.05;100.00;99798.59;4969737;28;20077;-69
2020/12/07 03:13:32;;;;;;;187.95;56.50;;;;;;;1.09;100.00;99792.06;4969413;28;20065;-69
2020/12/07 03:15:58;;;;;;;173.05;53.20;;;;;;;1.05;100.00;99790.66;4969609;28;20517;-69
2020/12/07 03:18:24;;;;;;;227.52;56.97;;;;;;;1.08;100.00;99789.56;4968914;28;20529;-69
2020/12/07 03:20:49;;;;;;;192.07;58.70;;;;;;;1.04;100.00;99786.34;4970199;28;20030;-69
2020/12/07 03:23:15;;;;;;;218.95;56.03;;;;;;;1.02;100.00;99783.00;4969403;28;20038;-69
2020/12/07 03:25:41;;;;;;;200.20;57.17;;;;;;;0.98;100.00;99782.44;4969483;28;20113;-69
2020/12/07 03:28:06;;;;;;;207.40;61.08;;;;;;;0.99;100.00;99789.38;4968460;28;20039;-69
2020/12/07 03:30:32;;;;;;;184.23;58.92;;;;;;;1.01;100.00;99784.00;4969661;28;20514;-69
2020/12/07 03:32:57;;;;;;;244.45;55.80;;;;;;;1.08;100.00;99786.94;4969025;28;20026;-69
2020/12/07 03:35:23;;;;;;;171.10;55.05;;;;;;;0.95;100.00;99787.97;4970038;28;20027;-69
2020/12/07 03:37:49;;;;;;;201.93;54.28;;;;;;;1.07;100.00;99793.19;4968921;28;20031;-69
2020/12/07 03:40:15;;;;;;;194.43;53.88;;;;;;;1.12;100.00;99785.72;4969988;28;20030;-69
2020/12/07 03:42:40;;;;;;;193.80;51.83;;;;;;;1.01;100.00;99789.28;4969009;28;20555;-69
2020/12/07 03:45:06;;;;;;;180.65;50.35;;;;;;;1.01;100.00;99789.28;4969788;28;20488;-69
2020/12/07 03:47:31;;;;;;;155.50;47.75;;;;;;;1.04;100.00;99791.63;4967225;28;20041;-69
2020/12/07 03:49:57;;;;;;;156.82;48.55;;;;;;;1.01;100.00;99797.19;4968267;28;20031;-69
2020/12/07 03:52:22;;;;;;;172.23;52.45;;;;;;;1.03;100.00;99796.09;4969868;28;20543;-69
2020/12/07 03:54:48;;;;;;;180.68;54.03;;;;;;;1.06;100.00;99808.22;4969989;28;20042;-69
2020/12/07 03:57:13;;;;;;;199.25;54.28;;;;;;;1.10;100.00;99804.31;4969136;28;20082;-69
2020/12/07 03:59:39;;;;;;;195.32;55.25;;;;;;;1.06;100.00;99794.16;4969711;28;20062;-68
2020/12/07 04:02:04;;;;;;;216.88;65.32;;;;;;;1.07;100.00;99799.31;4969548;28;20030;-69
2020/12/07 04:07:12;;;;;;;192.75;55.33;;;;;;;1.08;100.00;99792.22;4958101;28;20121;-69
2020/12/07 04:09:37;;;;;;;188.10;52.05;;;;;;;1.02;100.00;99796.22;4968843;28;20110;-69
2020/12/07 04:12:03;;;;;;;155.88;48.15;;;;;;;0.99;100.00;99802.59;4969524;28;20070;-69
2020/12/07 04:14:28;;;;;;;165.50;48.92;;;;;;;0.97;100.00;99801.06;4968620;28;20038;-68
2020/12/07 04:16:54;;;;;;;147.65;45.47;;;;;;;0.98;100.00;99806.19;4968775;28;20092;-69
2020/12/07 04:19:19;;;;;;;135.25;44.22;;;;;;;0.95;100.00;99809.09;4968789;28;20026;-69
2020/12/07 04:21:45;;;;;;;128.23;45.08;;;;;;;0.92;100.00;99809.38;4969895;28;20095;-69
2020/12/07 04:24:10;;;;;;;136.70;44.53;;;;;;;0.84;100.00;99806.53;4968595;28;20118;-69
2020/12/07 04:26:36;;;;;;;133.88;44.58;;;;;;;0.86;100.00;99803.78;4968970;28;20042;-69
2020/12/07 04:29:02;;;;;;;127.10;42.03;;;;;;;0.92;100.00;99801.44;4968565;28;20042;-69
2020/12/07 04:31:28;;;;;;;133.55;45.92;;;;;;;0.91;100.00;99793.66;4969349;28;20038;-69
2020/12/07 04:33:53;;;;;;;126.70;43.90;;;;;;;0.93;100.00;99797.00;4968243;28;20519;-68
2020/12/07 04:36:19;;;;;;;136.80;45.30;;;;;;;0.94;100.00;99788.09;4968869;28;20031;-69
2020/12/07 04:38:44;;;;;;;129.35;43.55;;;;;;;0.94;100.00;99782.81;4967872;28;20069;-69
2020/12/07 04:41:10;;;;;;;139.82;44.17;;;;;;;0.98;100.00;99779.78;4969237;28;20046;-70
2020/12/07 04:43:36;;;;;;;144.20;46.78;;;;;;;0.93;100.00;99778.50;4969434;28;20070;-69
2020/12/07 04:46:02;;;;;;;145.20;47.10;;;;;;;0.95;100.00;99776.56;4972959;28;20042;-69
2020/12/07 04:48:29;;;;;;;160.75;47.60;;;;;;;0.99;100.00;99778.81;4971578;28;20065;-68
2020/12/07 04:50:56;;;;;;;149.95;47.97;;;;;;;0.98;100.00;99771.03;4972462;28;20096;-69
2020/12/07 04:53:22;;;;;;;154.32;49.33;;;;;;;0.99;100.00;99775.34;4971995;28;20333;-69
2020/12/07 04:55:49;;;;;;;146.13;46.35;;;;;;;1.02;100.00;99775.94;4972296;28;20027;-69
2020/12/07 04:58:15;;;;;;;148.77;48.30;;;;;;;0.99;100.00;99780.63;4971627;28;20510;-69
2020/12/07 05:00:41;;;;;;;134.35;44.33;;;;;;;0.92;100.00;99776.84;4972282;28;20026;-69
2020/12/07 05:03:07;;;;;;;141.68;47.33;;;;;;;0.99;100.00;99780.63;4971933;28;20439;-69
2020/12/07 05:05:33;;;;;;;138.50;45.92;;;;;;;0.98;100.00;99776.31;4972121;28;20069;-69
2020/12/07 05:07:59;;;;;;;149.15;45.88;;;;;;;0.98;100.00;99773.69;4971123;28;20052;-69
2020/12/07 05:10:34;;;;;;;153.30;46.15;;;;;;;1.02;100.00;99770.66;4971720;28;20402;-69
2020/12/07 05:13:08;;;;;;;136.40;47.20;;;;;;;1.02;100.00;99765.38;4971825;28;20030;-69
2020/12/07 05:15:38;;;;;;;146.47;47.67;;;;;;;1.01;100.00;99755.78;4970974;28;20059;-70
2020/12/07 05:18:04;;;;;;;165.32;47.17;;;;;;;0.98;100.00;99769.22;4971291;28;20045;-69
2020/12/07 05:20:30;;;;;;;145.65;46.03;;;;;;;1.03;100.00;99751.19;4971591;28;20495;-69
2020/12/07 05:22:56;;;;;;;140.90;45.35;;;;;;;1.04;100.00;99754.66;4972030;28;20491;-69
2020/12/07 05:25:23;;;;;;;171.75;50.78;;;;;;;0.99;100.00;99746.28;4960628;28;20126;-69
2020/12/07 05:27:50;;;;;;;161.85;48.08;;;;;;;1.04;100.00;99752.00;4969905;28;20050;-69
2020/12/07 05:30:22;;;;;;;153.15;49.85;;;;;;;0.99;100.00;99752.41;4986305;28;20258;-69
2020/12/07 05:32:47;;;;;;;177.88;50.60;;;;;;;1.00;100.00;99758.53;4971500;28;20041;-69
2020/12/07 05:35:13;;;;;;;161.07;50.50;;;;;;;0.97;100.00;99756.16;4970839;28;20031;-69
2020/12/07 05:37:39;;;;;;;192.82;50.88;;;;;;;0.95;100.00;99750.16;4970972;28;20039;-69
2020/12/07 05:40:13;;;;;;;178.52;49.90;;;;;;;1.04;100.00;99749.38;4971707;28;20538;-69
2020/12/07 05:42:41;;;;;;;177.40;51.13;;;;;;;1.01;100.00;99745.22;4958914;28;20093;-69
2020/12/07 05:45:08;;;;;;;180.38;50.53;;;;;;;1.00;100.00;99748.81;4970996;28;20070;-69
2020/12/07 05:47:37;;;;;;;165.07;50.22;;;;;;;1.00;100.00;99753.25;4970213;28;20480;-69
2020/12/07 05:50:04;;;;;;;192.82;52.22;;;;;;;1.00;100.00;99748.81;4971105;28;20038;-69
2020/12/07 05:52:52;;;;;;;181.95;56.20;;;;;;;1.04;100.00;99752.84;4971400;28;20041;-69
2020/12/07 05:55:19;;;;;;;176.88;52.78;;;;;;;1.00;100.00;99753.25;4970594;28;20038;-69
2020/12/07 05:58:08;;;;;;;231.98;67.57;;;;;;;0.97;100.00;99764.09;4970216;28;20439;-69
2020/12/07 06:00:36;;;;;;;182.25;54.10;;;;;;;1.04;100.00;99763.41;4958858;28;20034;-69
2020/12/07 06:03:04;;;;;;;205.18;55.83;;;;;;;1.01;100.00;99770.78;4970825;28;20042;-69
2020/12/07 06:05:30;;;;;;;200.50;55.70;;;;;;;1.11;100.00;99768.19;4970821;28;20035;-69
2020/12/07 06:08:00;;;;;;;189.02;53.97;;;;;;;1.05;100.00;99774.81;4970425;28;20042;-69
2020/12/07 06:10:31;;;;;;;174.25;51.17;;;;;;;1.09;100.00;99759.53;4970777;28;20043;-69
2020/12/07 06:13:00;;;;;;;189.20;52.78;;;;;;;1.09;100.00;99768.31;4970242;28;20081;-69
2020/12/07 06:15:26;;;;;;;184.82;52.65;;;;;;;1.07;100.00;99764.13;4970405;28;20090;-69
2020/12/07 06:17:52;;;;;;;177.07;50.38;;;;;;;1.07;100.00;99758.84;4970134;28;20039;-69
2020/12/07 06:20:30;;;;;;;204.15;54.63;;;;;;;1.08;100.00;99761.34;4970999;28;20031;-69
2020/12/07 06:22:57;;;;;;;186.73;52.65;;;;;;;1.03;100.00;99764.38;4969950;28;20026;-69
2020/12/07 06:25:29;;;;;;;180.02;51.67;;;;;;;1.08;100.00;99752.59;4960307;28;20031;-69
2020/12/07 06:27:58;;;;;;;181.23;53.78;;;;;;;1.03;100.00;99750.34;4969677;28;20181;-69
2020/12/07 06:30:30;;;;;;;180.85;53.95;;;;;;;1.05;100.00;99761.59;4970811;28;20118;-69
2020/12/07 06:32:55;;;;;;;170.68;48.53;;;;;;;1.12;100.00;99761.94;4957450;28;20403;-69
2020/12/07 06:35:25;;;;;;;174.52;49.55;;;;;;;1.13;100.00;99760.97;4970243;28;20042;-69
2020/12/07 06:37:51;;;;;;;174.45;48.28;;;;;;;1.12;100.00;99767.22;4969342;28;20526;-69
2020/12/07 06:40:19;;;;;;;177.32;50.88;;;;;;;1.13;100.00;99760.97;4970250;28;20027;-69
2020/12/07 06:42:46;;;;;;;159.55;49.22;;;;;;;1.15;100.00;99765.13;4969856;28;20529;-69
2020/12/07 06:45:31;;;;;;;163.48;51.20;;;;;;;1.18;100.00;99761.41;4970195;28;20126;-69
2020/12/07 06:48:06;;;;;;;149.13;49.70;;;;;;;1.19;100.00;99768.34;4968904;28;20599;-69
2020/12/07 06:50:36;;;;;;;166.32;48.17;;;;;;;1.11;100.00;99763.75;4970226;28;20035;-69
2020/12/07 06:53:15;;;;;;;156.45;48.15;;;;;;;1.14;100.00;99766.09;4969915;28;20517;-69
2020/12/07 06:55:43;;;;;;;167.15;54.67;;;;;;;1.16;100.00;99773.91;4970235;28;20038;-69
2020/12/07 06:58:09;;;;;;;154.90;48.75;;;;;;;1.12;100.00;99765.41;4969074;28;20089;-69
2020/12/07 07:00:34;;;;;;;159.88;48.05;;;;;;;1.13;100.00;99761.78;4969873;28;20506;-69
2020/12/07 07:03:00;;;;;;;159.15;48.75;;;;;;;1.10;100.00;99761.22;4969486;28;20034;-69
2020/12/07 07:05:30;;;;;;;151.43;45.22;;;;;;;1.09;100.00;99781.50;4970461;28;20031;-69
2020/12/07 07:07:56;;;;;;;124.18;41.88;;;;;;;1.18;100.00;99772.81;4968934;28;20031;-69
2020/12/07 07:10:22;;;;;;;143.75;44.38;;;;;;;1.16;100.00;99773.91;4970219;28;20034;-69
2020/12/07 07:12:50;;;;;;;139.00;43.78;;;;;;;1.11;100.00;99784.03;4968857;28;20046;-69
2020/12/07 07:15:16;;;;;;;129.05;41.80;;;;;;;1.17;100.00;99792.28;4969761;28;20031;-69
2020/12/07 07:17:43;;;;;;;141.18;46.28;;;;;;;1.07;100.00;99790.56;4969167;28;20522;-69
2020/12/07 07:20:12;;;;;;;141.63;44.17;;;;;;;1.08;100.00;99798.34;4968872;28;20039;-69
2020/12/07 07:22:42;;;;;;;129.63;43.30;;;;;;;1.07;100.00;99801.94;4969422;28;20443;-69
2020/12/07 07:30:20;;;;;;;136.98;43.08;;;;;;;1.01;100.00;99794.56;4971087;28;20427;-69
2020/12/07 07:32:48;;;;;;;150.50;45.25;;;;;;;1.01;100.00;99784.00;4969948;28;20081;-69
2020/12/07 07:35:16;;;;;;;124.05;41.55;;;;;;;0.98;100.00;99789.53;4970883;28;20038;-69
2020/12/07 07:37:42;;;;;;;143.80;44.33;;;;;;;1.05;100.00;99785.38;4970555;28;20031;-69
2020/12/07 07:40:11;;;;;;;131.02;43.63;;;;;;;1.02;100.00;99791.78;4969799;28;20484;-69
2020/12/07 07:42:41;;;;;;;134.77;44.35;;;;;;;0.98;100.00;99793.00;4970124;28;20031;-69
2020/12/07 07:45:07;;;;;;;120.93;40.97;;;;;;;0.95;100.00;99795.06;4969826;28;20035;-69
2020/12/07 07:47:43;;;;;;;128.02;44.28;;;;;;;0.89;100.00;99804.34;4969536;28;20043;-69
2020/12/07 07:50:41;;;;;;;142.63;43.53;;;;;;;0.90;100.00;99807.81;4970083;28;20033;-69
2020/12/07 07:53:43;;;;;;;132.05;42.75;;;;;;;0.88;100.00;99800.03;4969187;28;20125;-69
2020/12/07 08:08:19;;;;;;;119.68;41.75;;;;;;;0.92;100.00;99827.84;4969281;28;20504;-69
2020/12/07 08:13:00;;;;;;;128.30;41.33;;;;;;;0.96;100.00;99824.00;4968870;28;20098;-69
2020/12/07 08:15:42;;;;;;;126.10;42.58;;;;;;;0.99;100.00;99820.25;4964718;28;20031;-69
2020/12/07 08:18:07;;;;;;;131.38;42.00;;;;;;;1.02;100.00;99820.00;4969545;28;20376;-68
2020/12/07 08:20:39;;;;;;;134.02;45.65;;;;;;;1.07;100.00;99820.44;4973215;28;20085;-69
2020/12/07 08:23:07;;;;;;;128.25;44.17;;;;;;;1.03;100.00;99821.66;4987684;28;20034;-70
2020/12/07 08:25:50;;;;;;;151.88;48.05;;;;;;;1.09;100.00;99815.00;4972643;28;20027;-71
2020/12/07 08:28:20;;;;;;;130.57;45.22;;;;;;;1.18;100.00;99823.00;4962031;28;20495;-71
2020/12/07 08:31:02;;;;;;;134.07;42.05;;;;;;;1.19;100.00;99824.66;4972740;28;20062;-68
2020/12/07 08:33:29;;;;;;;132.63;43.38;;;;;;;1.18;100.00;99824.81;4972474;28;20031;-68
2020/12/07 08:35:56;;;;;;;131.43;42.20;;;;;;;1.20;100.00;99820.22;4972673;28;20031;-68
2020/12/07 08:38:32;;;;;;;118.78;42.33;;;;;;;1.21;100.00;99835.13;4956375;28;20036;-68
2020/12/07 08:41:10;;;;;;;116.07;39.15;;;;;;;1.15;100.00;99849.66;4968168;28;20031;-68
2020/12/07 08:43:36;;;;;;;122.47;41.30;;;;;;;1.19;100.00;99861.66;4971998;28;20046;-68
2020/12/07 08:46:02;;;;;;;126.28;41.47;;;;;;;1.21;100.00;99851.81;4972202;28;20074;-68
2020/12/07 08:48:28;;;;;;;133.32;44.20;;;;;;;1.19;100.00;99847.59;4971224;28;20034;-68
2020/12/07 08:50:55;;;;;;;134.45;43.95;;;;;;;1.24;100.00;99848.06;4971398;28;20038;-69
2020/12/07 08:53:20;;;;;;;129.35;43.22;;;;;;;1.26;100.00;99870.75;4971347;28;20121;-68
2020/12/07 08:55:47;;;;;;;126.18;41.63;;;;;;;1.29;100.00;99865.19;4971562;28;20134;-68
2020/12/07 08:58:13;;;;;;;127.75;44.00;;;;;;;1.28;100.00;99855.59;4971024;28;20105;-72
2020/12/07 09:00:38;;;;;;;129.77;42.72;;;;;;;1.35;100.00;99857.69;4971694;28;20027;-68
2020/12/07 09:03:04;;;;;;;119.82;42.90;;;;;;;1.42;100.00;99869.44;4971855;28;20455;-68
2020/12/07 09:05:29;;;;;;;118.20;41.25;;;;;;;1.38;100.00;99860.94;4971133;28;20041;-68
2020/12/07 09:07:55;;;;;;;132.20;41.45;;;;;;;1.44;100.00;99862.19;4971808;28;20042;-68
2020/12/07 09:10:21;;;;;;;131.63;47.03;;;;;;;1.40;100.00;99866.91;4971301;28;20031;-68
2020/12/07 09:12:46;;;;;;;117.43;40.95;;;;;;;1.45;100.00;99866.50;4971182;28;20078;-68
2020/12/07 09:15:12;;;;;;;126.75;40.75;;;;;;;1.51;100.00;99861.56;4971403;28;20039;-68
2020/12/07 09:17:37;;;;;;;120.00;40.35;;;;;;;1.57;100.00;99864.66;4971816;28;20447;-68
2020/12/07 09:20:04;;;;;;;127.22;44.70;;;;;;;1.57;100.00;99873.41;4970716;28;20054;-68
2020/12/07 09:22:29;;;;;;;121.70;43.13;;;;;;;1.55;100.00;99870.03;4971806;28;20031;-68
2020/12/07 09:24:55;;;;;;;122.00;44.10;;;;;;;1.59;100.00;99871.44;4970884;28;20391;-68
2020/12/07 09:27:20;;;;;;;119.75;39.22;;;;;;;1.63;100.00;99872.03;4971091;28;20110;-68
2020/12/07 09:29:46;;;;;;;110.95;38.95;;;;;;;1.70;100.00;99875.81;4985385;28;20502;-68
2020/12/07 09:32:11;;;;;;;123.60;40.33;;;;;;;1.75;100.00;99866.50;4971758;28;20046;-68
2020/12/07 09:34:38;;;;;;;112.65;39.05;;;;;;;1.75;100.00;99866.50;4970662;28;20118;-68
2020/12/07 09:37:03;;;;;;;122.97;39.47;;;;;;;1.78;100.00;99868.06;4970649;28;20070;-68
2020/12/07 09:39:29;;;;;;;109.78;38.97;;;;;;;1.83;100.00;99868.50;4971352;28;20066;-68
2020/12/07 09:41:56;;;;;;;114.07;39.35;;;;;;;1.95;100.00;99869.22;4970453;28;20030;-68
2020/12/07 09:44:22;;;;;;;114.57;39.58;;;;;;;1.87;100.00;99871.72;4970893;28;20045;-67
2020/12/07 09:46:48;;;;;;;113.68;37.42;;;;;;;1.98;100.00;99869.78;4985137;28;20030;-68
2020/12/07 09:49:13;;;;;;;109.47;38.47;;;;;;;2.08;100.00;99869.81;4970200;28;20505;-70
2020/12/07 09:51:39;;;;;;;109.78;37.85;;;;;;;2.15;100.00;99870.09;4970666;28;20079;-68
2020/12/07 09:54:04;;;;;;;101.45;36.67;;;;;;;2.15;100.00;99865.66;4970678;28;20082;-68
2020/12/07 09:56:30;;;;;;;102.88;36.67;;;;;;;2.24;100.00;99867.47;4969931;28;20031;-68
2020/12/07 09:58:56;;;;;;;114.22;37.05;;;;;;;2.28;100.00;99870.69;4970491;28;20090;-68
2020/12/07 10:01:22;;;;;;;110.18;36.90;;;;;;;2.23;100.00;99875.56;4970424;28;20034;-69
2020/12/07 10:03:48;;;;;;;109.45;37.90;;;;;;;2.26;100.00;99876.13;4970023;28;20043;-68
2020/12/07 10:06:13;;;;;;;116.25;38.42;;;;;;;2.18;100.00;99875.97;4969856;28;20161;-68
2020/12/07 10:08:39;;;;;;;112.60;38.40;;;;;;;2.19;100.00;99875.00;4970294;28;20129;-69
2020/12/07 10:11:05;;;;;;;117.75;39.45;;;;;;;2.19;100.00;99879.44;4970059;28;20526;-69
2020/12/07 10:13:30;;;;;;;111.80;38.78;;;;;;;2.31;100.00;99881.03;4970330;28;20037;-68
2020/12/07 10:15:56;;;;;;;111.38;38.58;;;;;;;2.34;100.00;99876.28;4969432;28;20042;-68
2020/12/07 10:18:21;;;;;;;115.00;37.90;;;;;;;2.44;100.00;99876.28;4969219;28;20030;-68
2020/12/07 10:20:47;;;;;;;116.30;37.45;;;;;;;2.41;100.00;99866.00;4983408;28;20034;-68
2020/12/07 10:23:12;;;;;;;112.60;37.78;;;;;;;2.41;100.00;99870.41;4970455;28;20051;-69
2020/12/07 10:25:38;;;;;;;118.95;37.22;;;;;;;2.46;100.00;99868.19;4984476;28;20026;-72
2020/12/07 10:28:04;;;;;;;127.18;40.40;;;;;;;2.43;100.00;99865.84;4969990;28;20120;-67
2020/12/07 10:30:30;;;;;;;123.95;39.42;;;;;;;2.53;100.00;99871.97;4969793;28;20089;-73
2020/12/07 10:32:56;;;;;;;114.43;38.58;;;;;;;2.61;100.00;99874.78;4969531;28;20555;-69
2020/12/07 10:35:22;;;;;;;110.93;37.55;;;;;;;2.66;100.00;99875.19;4969938;28;20122;-68
2020/12/07 10:37:47;;;;;;;118.07;39.58;;;;;;;2.78;100.00;99879.38;4969606;28;20089;-68
2020/12/07 10:40:13;;;;;;;108.50;36.65;;;;;;;2.70;100.00;99867.78;4968971;28;20065;-68
2020/12/07 10:42:38;;;;;;;115.95;39.42;;;;;;;2.79;100.00;99864.31;4969028;28;20512;-68
2020/12/07 10:45:04;;;;;;;116.63;39.90;;;;;;;2.89;100.00;99864.31;4969525;28;20113;-68
2020/12/07 10:47:30;;;;;;;120.85;39.65;;;;;;;2.79;100.00;99869.59;4967267;28;20058;-68
2020/12/07 10:49:55;;;;;;;119.35;39.90;;;;;;;2.72;100.00;99866.69;4968135;28;20082;-68
2020/12/07 10:52:21;;;;;;;126.65;41.33;;;;;;;2.73;100.00;99873.66;4984614;28;20038;-68
2020/12/07 10:54:47;;;;;;;120.82;38.47;;;;;;;2.68;100.00;99875.88;4969355;28;20115;-69
2020/12/07 10:57:12;;;;;;;123.40;38.90;;;;;;;2.65;100.00;99870.84;4968845;28;20047;-68
2020/12/07 10:59:38;;;;;;;117.10;40.88;;;;;;;2.66;100.00;99876.97;4968107;28;20507;-68
2020/12/07 11:02:03;;;;;;;123.60;40.10;;;;;;;2.62;100.00;99876.44;4968666;28;20034;-68
2020/12/07 11:04:29;;;;;;;125.50;39.15;;;;;;;2.67;100.00;99882.16;4969285;28;20065;-68
2020/12/07 11:06:57;;;;;;;124.55;41.60;;;;;;;2.67;100.00;99887.47;4968856;28;20038;-68
2020/12/07 11:09:23;;;;;;;120.93;39.92;;;;;;;2.55;100.00;99884.09;4968608;28;20046;-68
2020/12/07 11:11:56;;;;;;;132.77;39.65;;;;;;;2.53;100.00;99886.06;4969235;28;20074;-68
2020/12/07 11:14:21;;;;;;;113.82;37.22;;;;;;;2.57;100.00;99883.97;4968524;28;20038;-68
2020/12/07 11:16:47;;;;;;;107.38;39.22;;;;;;;2.51;100.00;99888.00;4968281;28;20487;-68
2020/12/07 11:19:12;;;;;;;113.65;37.50;;;;;;;2.38;100.00;99882.13;4968458;28;20109;-69
2020/12/07 11:21:38;;;;;;;115.00;38.38;;;;;;;2.33;100.00;99879.06;4968434;28;20039;-68
2020/12/07 11:24:03;;;;;;;107.10;36.38;;;;;;;2.30;100.00;99880.16;4969087;28;20030;-69
2020/12/07 11:26:29;;;;;;;115.03;39.80;;;;;;;2.19;100.00;99877.63;4969050;28;20117;-68
2020/12/07 11:28:54;;;;;;;113.15;37.40;;;;;;;2.30;100.00;99874.88;4968406;28;20093;-69
2020/12/07 11:31:20;;;;;;;117.28;38.95;;;;;;;2.40;100.00;99874.03;4968612;28;20121;-68